createdAt,value
2023-01-05T00:02:51.061Z,6.13
2023-01-05T00:05:42.831Z,5.05
2023-01-05T00:08:33.072Z,5.40
2023-01-05T00:11:43.635Z,4.55
2023-01-05T00:14:52.488Z,6.70
2023-01-05T00:17:56.963Z,7.82
2023-01-05T00:21:01.749Z,5.75
2023-01-05T00:23:47.412Z,4.82
2023-01-05T00:26:33.006Z,5.10
2023-01-05T00:29:18.574Z,6.00
2023-01-05T00:32:04.580Z,6.57
2023-01-05T00:34:54.441Z,6.63
2023-01-05T00:37:40.105Z,5.53
2023-01-05T00:40:28.156Z,5.35
2023-01-05T00:43:13.982Z,6.88
2023-01-05T00:45:59.575Z,6.63
2023-01-05T00:48:45.114Z,5.35
2023-01-05T00:51:30.503Z,5.70
2023-01-05T00:54:16.062Z,5.00
2023-01-05T00:57:02.107Z,5.75
2023-01-05T00:59:47.515Z,8.00
2023-01-05T01:02:33.293Z,4.72
2023-01-05T01:05:19.819Z,4.97
2023-01-05T01:08:05.834Z,5.55
2023-01-05T01:10:51.373Z,5.75
2023-01-05T01:13:43.047Z,7.75
2023-01-05T01:16:28.927Z,6.53
2023-01-05T01:19:16.833Z,5.75
2023-01-05T01:22:02.575Z,5.95
2023-01-05T01:24:48.000Z,5.38
2023-01-05T01:27:33.730Z,5.97
2023-01-05T01:30:20.328Z,7.18
2023-01-05T01:33:06.091Z,5.80
2023-01-05T01:35:51.715Z,7.82
2023-01-05T01:38:37.097Z,6.22
2023-01-05T01:41:22.738Z,5.30
2023-01-05T01:44:45.844Z,5.50
2023-01-05T01:47:42.045Z,8.55
2023-01-05T01:50:36.719Z,5.13
2023-01-05T01:53:28.382Z,6.05
2023-01-05T01:56:18.320Z,6.40
2023-01-05T01:59:05.610Z,6.63
2023-01-05T02:01:54.869Z,6.10
2023-01-05T02:04:41.562Z,6.15
2023-01-05T02:07:33.659Z,5.63
2023-01-05T02:10:32.141Z,6.57
2023-01-05T02:13:39.136Z,4.82
2023-01-05T02:16:42.587Z,5.63
2023-01-05T02:19:54.096Z,6.85
2023-01-05T02:22:45.437Z,8.05
2023-01-05T02:25:49.482Z,6.25
2023-01-05T02:28:37.589Z,6.95
2023-01-05T02:31:37.492Z,6.53
2023-01-05T02:34:34.842Z,6.95
2023-01-05T02:37:29.640Z,6.18
2023-01-05T02:40:26.672Z,6.15
2023-01-05T02:43:14.650Z,8.55
2023-01-05T02:46:00.257Z,5.93
2023-01-05T02:48:48.803Z,4.93
2023-01-05T02:51:44.095Z,5.97
2023-01-05T02:54:44.345Z,4.75
2023-01-05T02:57:52.769Z,6.70
2023-01-05T03:00:45.257Z,6.03
2023-01-05T03:03:34.201Z,7.47
2023-01-05T03:06:38.782Z,6.35
2023-01-05T03:09:28.532Z,5.95
2023-01-05T03:12:38.171Z,6.25
2023-01-05T03:15:34.133Z,5.32
2023-01-05T03:18:21.985Z,5.03
2023-01-05T03:21:07.859Z,5.88
2023-01-05T03:24:15.018Z,5.65
2023-01-05T03:27:18.979Z,5.57
2023-01-05T03:30:23.702Z,5.75
2023-01-05T03:33:37.839Z,7.28
2023-01-05T03:36:26.754Z,5.57
2023-01-05T03:39:14.082Z,7.28
2023-01-05T03:42:00.225Z,6.60
2023-01-05T03:44:46.774Z,7.65
2023-01-05T03:47:31.883Z,6.72
2023-01-05T03:50:17.805Z,6.72
2023-01-05T03:53:03.997Z,6.53
2023-01-05T03:55:49.484Z,5.40
2023-01-05T03:58:34.952Z,6.28
2023-01-05T04:01:20.879Z,6.18
2023-01-05T04:04:06.344Z,7.15
2023-01-05T04:06:51.750Z,6.63
2023-01-05T04:09:37.340Z,7.38
2023-01-05T04:12:22.865Z,6.82
2023-01-05T04:15:08.953Z,7.45
2023-01-05T04:17:54.472Z,8.35
2023-01-05T04:20:41.495Z,7.72
2023-01-05T04:23:26.924Z,8.10
2023-01-05T04:26:12.313Z,6.47
2023-01-05T04:28:57.723Z,6.45
2023-01-05T04:31:43.306Z,6.07
2023-01-05T04:34:28.732Z,6.45
2023-01-05T04:37:14.200Z,7.35
2023-01-05T04:39:59.707Z,5.65
2023-01-05T04:42:46.275Z,7.18
2023-01-05T04:45:32.372Z,5.53
2023-01-05T04:48:18.090Z,5.97
2023-01-05T04:51:03.873Z,6.05
2023-01-05T04:53:49.420Z,6.82
2023-01-05T04:56:34.637Z,6.10
2023-01-05T04:59:20.209Z,7.20
2023-01-05T05:02:05.693Z,7.22
2023-01-05T05:04:51.420Z,7.03
2023-01-05T05:07:37.084Z,6.40
2023-01-05T05:10:22.615Z,6.25
2023-01-05T05:13:08.219Z,6.30
2023-01-05T05:15:53.705Z,7.05
2023-01-05T05:18:39.310Z,5.35
2023-01-05T05:21:24.927Z,6.13
2023-01-05T05:24:10.429Z,5.50
2023-01-05T05:26:57.321Z,6.75
2023-01-05T05:29:42.667Z,5.95
2023-01-05T05:32:28.265Z,6.18
2023-01-05T05:35:13.858Z,5.57
2023-01-05T05:37:59.314Z,6.47
2023-01-05T05:40:44.884Z,5.85
2023-01-05T05:43:30.284Z,7.07
2023-01-05T05:46:15.771Z,6.97
2023-01-05T05:49:01.415Z,7.45
2023-01-05T05:51:46.494Z,6.15
2023-01-05T05:54:32.172Z,5.97
2023-01-05T05:57:17.696Z,7.85
2023-01-05T06:00:04.506Z,5.85
2023-01-05T06:02:50.183Z,5.65
2023-01-05T06:05:35.569Z,6.50
2023-01-05T06:08:21.905Z,5.97
2023-01-05T06:11:08.146Z,5.35
2023-01-05T06:13:53.922Z,6.85
2023-01-05T06:16:39.471Z,6.22
2023-01-05T06:19:24.845Z,5.70
2023-01-05T06:22:10.595Z,7.20
2023-01-05T06:24:55.743Z,5.82
2023-01-05T06:27:41.266Z,7.60
2023-01-05T06:30:27.560Z,6.00
2023-01-05T06:33:12.918Z,7.80
2023-01-05T06:35:58.849Z,5.80
2023-01-05T06:38:44.333Z,7.00
2023-01-05T06:41:30.635Z,6.45
2023-01-05T06:44:16.115Z,5.55
2023-01-05T06:47:02.056Z,7.35
2023-01-05T06:49:47.749Z,6.07
2023-01-05T06:52:36.784Z,7.43
2023-01-05T06:55:22.334Z,5.28
2023-01-05T06:58:07.985Z,6.68
2023-01-05T07:00:56.971Z,5.55
2023-01-05T07:03:42.821Z,6.40
2023-01-05T07:06:28.411Z,5.35
2023-01-05T07:09:13.809Z,5.50
2023-01-05T07:11:59.359Z,6.57
2023-01-05T07:14:45.021Z,7.00
2023-01-05T07:17:30.351Z,5.10
2023-01-05T07:20:16.143Z,7.07
2023-01-05T07:23:01.542Z,5.45
2023-01-05T07:25:47.097Z,7.32
2023-01-05T07:28:32.783Z,5.60
2023-01-05T07:31:17.909Z,6.32
2023-01-05T07:34:03.424Z,6.32
2023-01-05T07:36:49.678Z,7.15
2023-01-05T07:39:35.093Z,6.60
2023-01-05T07:42:21.021Z,6.03
2023-01-05T07:45:07.140Z,6.10
2023-01-05T07:47:52.718Z,5.57
2023-01-05T07:50:38.531Z,7.10
2023-01-05T07:53:23.882Z,6.97
2023-01-05T07:56:09.933Z,6.00
2023-01-05T07:58:55.433Z,6.82
2023-01-05T08:01:41.077Z,7.70
2023-01-05T08:04:26.893Z,5.80
2023-01-05T08:07:12.255Z,6.70
2023-01-05T08:10:29.878Z,5.88
2023-01-05T08:13:34.357Z,6.85
2023-01-05T08:16:19.906Z,6.30
2023-01-05T08:19:10.684Z,6.35
2023-01-05T08:21:56.827Z,6.50
2023-01-05T08:24:42.115Z,5.18
2023-01-05T08:27:27.652Z,7.80
2023-01-05T08:30:14.407Z,8.48
2023-01-05T08:32:59.850Z,7.85
2023-01-05T08:35:45.581Z,6.82
2023-01-05T08:38:30.859Z,7.15
2023-01-05T08:41:28.545Z,6.10
2023-01-05T08:44:14.687Z,6.75
2023-01-05T08:47:00.455Z,7.25
2023-01-05T08:49:47.068Z,5.82
2023-01-05T08:52:32.237Z,7.25
2023-01-05T08:55:18.209Z,6.10
2023-01-05T08:58:06.682Z,7.18
2023-01-05T09:00:53.448Z,5.70
2023-01-05T09:03:39.476Z,5.53
2023-01-05T09:06:25.400Z,7.10
2023-01-05T09:09:10.976Z,7.22
2023-01-05T09:11:56.523Z,5.93
2023-01-05T09:14:42.005Z,4.90
2023-01-05T09:17:27.940Z,7.63
2023-01-05T09:20:14.608Z,5.43
2023-01-05T09:23:00.197Z,5.32
2023-01-05T09:25:46.459Z,4.82
2023-01-05T09:28:33.512Z,6.30
2023-01-05T09:31:22.516Z,6.15
2023-01-05T09:34:08.606Z,5.13
2023-01-05T09:36:54.204Z,4.63
2023-01-05T09:39:39.705Z,5.25
2023-01-05T09:42:30.960Z,4.13
2023-01-05T09:45:27.689Z,4.88
2023-01-05T09:48:15.130Z,3.13
2023-01-05T09:51:00.423Z,4.55
2023-01-05T09:53:46.142Z,4.30
2023-01-05T09:57:08.709Z,3.38
2023-01-05T09:59:48.087Z,3.30
2023-01-05T10:02:58.172Z,3.58
2023-01-05T10:05:45.372Z,2.75
2023-01-05T10:08:41.347Z,2.63
2023-01-05T10:12:05.829Z,2.75
2023-01-05T10:15:14.914Z,2.65
2023-01-05T10:18:08.383Z,2.50
2023-01-05T10:21:20.022Z,3.22
2023-01-05T10:24:11.592Z,3.33
2023-01-05T10:27:24.829Z,3.08
2023-01-05T10:30:26.875Z,2.65
2023-01-05T10:33:29.261Z,2.88
2023-01-05T10:36:57.592Z,3.10
2023-01-05T10:43:07.084Z,2.22
2023-01-05T10:46:29.369Z,2.30
2023-01-05T10:48:59.396Z,3.13
2023-01-05T10:51:48.910Z,2.58
2023-01-05T10:54:40.972Z,1.88
2023-01-05T10:57:34.792Z,1.70
2023-01-05T11:00:42.049Z,2.33
2023-01-05T11:04:23.025Z,1.80
2023-01-05T11:06:47.400Z,1.70
2023-01-05T11:09:33.784Z,1.55
2023-01-05T11:12:25.735Z,1.70
2023-01-05T11:15:13.333Z,2.28
2023-01-05T11:17:59.218Z,1.40
2023-01-05T11:21:12.674Z,1.50
2023-01-05T11:23:59.646Z,1.27
2023-01-05T11:26:53.683Z,1.55
2023-01-05T11:29:39.251Z,1.40
2023-01-05T11:32:24.815Z,1.38
2023-01-05T11:35:30.529Z,1.50
2023-01-05T11:38:23.638Z,1.83
2023-01-05T11:41:12.566Z,1.65
2023-01-05T11:44:00.907Z,1.45
2023-01-05T11:46:47.370Z,1.60
2023-01-05T11:49:33.919Z,1.48
2023-01-05T11:52:28.990Z,2.00
2023-01-05T11:55:20.329Z,1.27
2023-01-05T11:58:25.693Z,1.50
2023-01-05T12:01:29.429Z,1.73
2023-01-05T12:04:26.261Z,1.77
2023-01-05T12:07:42.989Z,2.05
2023-01-05T12:10:52.734Z,1.60
2023-01-05T12:13:54.004Z,2.08
2023-01-05T12:16:45.996Z,2.67
2023-01-05T12:20:16.616Z,1.70
2023-01-05T12:23:24.740Z,1.73
2023-01-05T12:26:26.748Z,1.88
2023-01-05T12:31:02.704Z,2.30
2023-01-05T12:36:55.636Z,2.10
2023-01-05T12:40:04.769Z,2.58
2023-01-05T12:43:18.509Z,1.98
2023-01-05T12:46:38.955Z,2.00
2023-01-05T12:49:35.905Z,2.83
2023-01-05T12:52:46.316Z,2.45
2023-01-05T12:55:39.209Z,2.83
2023-01-05T12:58:34.862Z,2.85
2023-01-05T13:01:26.525Z,2.58
2023-01-05T13:04:38.917Z,2.20
2023-01-05T13:07:26.820Z,3.53
2023-01-05T13:10:24.155Z,2.70
2023-01-05T13:13:23.246Z,2.85
2023-01-05T13:16:08.833Z,2.33
2023-01-05T13:19:02.908Z,2.15
2023-01-05T13:21:48.584Z,2.25
2023-01-05T13:24:39.614Z,2.35
2023-01-05T13:27:26.319Z,2.58
2023-01-05T13:30:49.159Z,2.35
2023-01-05T13:34:02.562Z,3.28
2023-01-05T13:37:20.677Z,2.72
2023-01-05T13:40:18.059Z,2.70
2023-01-05T13:43:19.040Z,2.72
2023-01-05T13:46:19.630Z,2.78
2023-01-05T13:49:27.147Z,2.75
2023-01-05T13:52:37.723Z,2.58
2023-01-05T13:55:26.674Z,3.25
2023-01-05T13:58:24.919Z,3.08
2023-01-05T14:01:17.989Z,2.88
2023-01-05T14:04:07.118Z,3.00
2023-01-05T14:07:15.920Z,3.17
2023-01-05T14:10:03.272Z,3.30
2023-01-05T14:12:50.527Z,2.63
2023-01-05T14:15:43.657Z,3.22
2023-01-05T14:18:47.997Z,3.30
2023-01-05T14:22:20.803Z,2.90
2023-01-05T14:25:39.959Z,3.47
2023-01-05T14:28:28.483Z,3.17
2023-01-05T14:31:16.972Z,2.97
2023-01-05T14:34:07.623Z,2.63
2023-01-05T14:37:06.398Z,3.13
2023-01-05T14:39:57.144Z,4.82
2023-01-05T14:42:50.672Z,4.05
2023-01-05T14:45:39.353Z,3.35
2023-01-05T14:48:35.657Z,3.40
2023-01-05T14:51:30.067Z,4.75
2023-01-05T14:54:34.404Z,4.97
2023-01-05T14:57:56.582Z,4.07
2023-01-05T15:00:58.188Z,5.80
2023-01-05T15:03:55.585Z,3.70
2023-01-05T15:07:21.136Z,3.40
2023-01-05T15:10:19.621Z,5.85
2023-01-05T15:13:28.432Z,3.83
2023-01-05T15:16:27.935Z,4.20
2023-01-05T15:19:28.791Z,3.70
2023-01-05T15:22:51.293Z,3.67
2023-01-05T15:26:03.118Z,3.75
2023-01-05T15:29:10.885Z,4.20
2023-01-05T15:32:11.207Z,4.10
2023-01-05T15:35:30.983Z,3.80
2023-01-05T15:38:24.208Z,3.25
2023-01-05T15:41:12.604Z,2.90
2023-01-05T15:43:58.410Z,3.70
2023-01-05T15:46:44.660Z,3.67
2023-01-05T15:49:32.907Z,4.18
2023-01-05T15:52:44.363Z,3.92
2023-01-05T15:55:31.700Z,4.47
2023-01-05T15:58:18.181Z,5.07
2023-01-05T16:01:16.078Z,3.15
2023-01-05T16:04:09.984Z,2.85
2023-01-05T16:07:01.720Z,3.80
2023-01-05T16:09:48.746Z,2.78
2023-01-05T16:12:35.298Z,1.95
2023-01-05T16:15:23.839Z,3.50
2023-01-05T16:18:16.805Z,3.72
2023-01-05T16:24:23.762Z,2.97
2023-01-05T16:27:13.679Z,3.08
2023-01-05T16:30:29.932Z,3.22
2023-01-05T16:33:35.699Z,2.15
2023-01-05T16:36:22.512Z,1.98
2023-01-05T16:39:22.451Z,2.83
2023-01-05T16:42:35.464Z,2.50
2023-01-05T16:45:24.403Z,2.63
2023-01-05T16:48:40.623Z,3.05
2023-01-05T16:51:39.152Z,2.50
2023-01-05T16:54:37.301Z,2.13
2023-01-05T16:57:42.280Z,4.10
2023-01-05T17:00:32.613Z,2.00
2023-01-05T17:03:30.947Z,2.20
2023-01-05T17:06:31.898Z,2.17
2023-01-05T17:09:32.095Z,2.63
2023-01-05T17:12:18.095Z,1.50
2023-01-05T17:15:06.594Z,3.25
2023-01-05T17:17:55.244Z,3.35
2023-01-05T17:20:42.548Z,2.45
2023-01-05T17:23:27.811Z,3.58
2023-01-05T17:26:35.485Z,2.58
2023-01-05T17:29:23.758Z,2.88
2023-01-05T17:32:11.474Z,3.22
2023-01-05T17:34:56.730Z,2.78
2023-01-05T17:37:42.195Z,2.83
2023-01-05T17:40:28.614Z,2.08
2023-01-05T17:43:14.085Z,3.10
2023-01-05T17:45:59.699Z,2.72
2023-01-05T17:48:45.373Z,3.85
2023-01-05T17:51:30.860Z,3.65
2023-01-05T17:54:16.407Z,2.13
2023-01-05T17:57:01.860Z,3.13
2023-01-05T17:59:48.197Z,2.53
2023-01-05T18:02:33.656Z,2.63
2023-01-05T18:05:19.837Z,2.33
2023-01-05T18:10:54.332Z,2.40
2023-01-05T18:13:40.250Z,2.83
2023-01-05T18:16:26.439Z,3.63
2023-01-05T18:22:05.825Z,2.90
2023-01-05T18:24:51.634Z,1.95
2023-01-05T18:27:37.103Z,3.78
2023-01-05T18:30:22.685Z,1.90
2023-01-05T18:33:08.044Z,1.52
2023-01-05T18:38:41.219Z,1.98
2023-01-05T18:41:26.637Z,2.15
2023-01-05T18:44:12.411Z,1.83
2023-01-05T18:46:58.382Z,1.80
2023-01-05T18:49:44.036Z,1.38
2023-01-05T18:52:29.558Z,2.58
2023-01-05T18:55:15.311Z,1.95
2023-01-05T18:58:00.617Z,2.42
2023-01-05T19:00:46.774Z,2.10
2023-01-05T19:03:32.172Z,2.17
2023-01-05T19:06:19.805Z,1.92
2023-01-05T19:09:07.370Z,2.15
2023-01-05T19:11:52.870Z,1.70
2023-01-05T19:14:38.392Z,1.70
2023-01-05T19:17:24.302Z,2.25
2023-01-05T19:20:10.402Z,2.13
2023-01-05T19:22:55.995Z,2.20
2023-01-05T19:25:43.185Z,1.90
2023-01-05T19:28:29.066Z,1.88
2023-01-05T19:31:15.473Z,2.40
2023-01-05T19:34:00.894Z,2.45
2023-01-05T19:36:47.335Z,2.95
2023-01-05T19:39:32.608Z,3.35
2023-01-05T19:42:18.080Z,4.18
2023-01-05T19:45:03.780Z,2.65
2023-01-05T19:47:49.196Z,3.13
2023-01-05T19:50:34.868Z,2.42
2023-01-05T19:53:20.533Z,2.72
2023-01-05T19:56:06.985Z,4.35
2023-01-05T19:58:59.909Z,3.10
2023-01-05T20:01:45.950Z,2.53
2023-01-05T20:04:32.242Z,3.47
2023-01-05T20:07:17.618Z,2.80
2023-01-05T20:10:03.296Z,3.22
2023-01-05T20:12:49.105Z,3.75
2023-01-05T20:15:36.203Z,3.20
2023-01-05T20:18:21.575Z,3.00
2023-01-05T20:21:08.610Z,2.58
2023-01-05T20:23:54.985Z,3.55
2023-01-05T20:26:42.108Z,2.85
2023-01-05T20:29:28.840Z,2.47
2023-01-05T20:32:18.026Z,4.45
2023-01-05T20:35:04.128Z,2.35
2023-01-05T20:37:49.709Z,2.75
2023-01-05T20:40:35.285Z,3.05
2023-01-05T20:43:20.847Z,3.22
2023-01-05T20:46:06.424Z,2.78
2023-01-05T20:48:53.156Z,2.78
2023-01-05T20:51:39.758Z,2.55
2023-01-05T20:54:26.629Z,4.32
2023-01-05T20:57:11.973Z,2.85
2023-01-05T20:59:57.403Z,3.75
2023-01-05T21:02:42.965Z,1.83
2023-01-05T21:05:28.436Z,3.60
2023-01-05T21:08:14.623Z,1.55
2023-01-05T21:11:03.726Z,2.30
2023-01-05T21:13:50.589Z,3.55
2023-01-05T21:16:42.813Z,2.05
2023-01-05T21:19:28.392Z,2.00
2023-01-05T21:22:14.075Z,2.20
2023-01-05T21:24:59.845Z,2.47
2023-01-05T21:27:45.518Z,3.05
2023-01-05T21:30:31.073Z,2.33
2023-01-05T21:33:16.789Z,2.53
2023-01-05T21:36:04.045Z,2.08
2023-01-05T21:39:03.978Z,2.47
2023-01-05T21:42:09.599Z,2.67
2023-01-05T21:44:55.540Z,2.38
2023-01-05T21:47:41.374Z,2.08
2023-01-05T21:50:46.266Z,2.72
2023-01-05T21:53:50.248Z,3.03
2023-01-05T21:56:40.309Z,2.25
2023-01-05T21:59:26.769Z,2.30
2023-01-05T22:02:14.522Z,2.25
2023-01-05T22:04:59.861Z,3.03
2023-01-05T22:07:48.977Z,1.92
2023-01-05T22:10:34.406Z,2.00
2023-01-05T22:13:19.859Z,3.55
2023-01-05T22:16:06.569Z,1.95
2023-01-05T22:18:52.359Z,4.05
2023-01-05T22:21:38.237Z,2.08
2023-01-05T22:24:23.436Z,2.47
2023-01-05T22:27:09.132Z,1.80
2023-01-05T22:29:54.531Z,3.17
2023-01-05T22:32:39.939Z,2.70
2023-01-05T22:35:26.206Z,2.10
2023-01-05T22:38:11.623Z,2.20
2023-01-05T22:41:00.961Z,1.95
2023-01-05T22:43:46.990Z,1.92
2023-01-05T22:46:32.294Z,1.65
2023-01-05T22:49:17.903Z,1.90
2023-01-05T22:52:03.675Z,2.20
2023-01-05T22:54:49.318Z,1.75
2023-01-05T22:57:34.876Z,1.92
2023-01-05T23:00:20.460Z,2.88
2023-01-05T23:03:05.775Z,1.67
2023-01-05T23:05:53.553Z,2.17
2023-01-05T23:08:40.123Z,2.00
2023-01-05T23:11:31.005Z,1.70
2023-01-05T23:14:18.949Z,1.70
2023-01-05T23:17:04.483Z,1.90
2023-01-05T23:19:49.708Z,1.25
2023-01-05T23:22:34.991Z,1.77
2023-01-05T23:25:20.513Z,2.03
2023-01-05T23:28:06.329Z,1.55
2023-01-05T23:30:54.331Z,1.92
2023-01-05T23:33:41.057Z,2.22
2023-01-05T23:36:57.921Z,1.70
2023-01-05T23:39:43.430Z,2.03
2023-01-05T23:42:46.833Z,2.00
2023-01-05T23:45:32.168Z,1.48
2023-01-05T23:48:18.231Z,1.73
2023-01-05T23:51:05.741Z,1.33
2023-01-05T23:53:53.206Z,1.40
2023-01-05T23:56:38.782Z,1.17
2023-01-05T23:59:24.472Z,1.70
